Time;durP1;ratioP1;P1;durP2;ratioP2;P2;SDS_P1;SDS_P2;PMS_P1;PMS_P2;Temp;Humidity;BMP_temperature;BMP_pressure;BME280_temperature;BME280_humidity;BME280_pressure;Samples;Min_cycle;Max_cycle;Signal;HPM_P1;HPM_P2
2023/05/01 00:01:16;;;;;;;3.80;2.42;;;;;;;;;;6237499;28;20305;-74
2023/05/01 00:04:23;;;;;;;3.05;2.90;;;;;;;;;;6237704;28;20288;-74
2023/05/01 00:07:30;;;;;;;3.30;2.50;;;;;;;;;;6237994;28;20568;-74
2023/05/01 00:10:36;;;;;;;2.78;2.65;;;;;;;;;;6237186;28;20301;-76
2023/05/01 00:13:41;;;;;;;2.97;2.50;;;;;;;;;;6237570;28;20592;-74
2023/05/01 00:16:46;;;;;;;2.42;2.33;;;;;;;;;;6236921;28;20475;-74
2023/05/01 00:19:54;;;;;;;2.60;2.40;;;;;;;;;;6237323;28;20607;-75
2023/05/01 00:22:59;;;;;;;2.60;2.40;;;;;;;;;;6237303;28;20300;-75
2023/05/01 00:26:05;;;;;;;2.55;2.35;;;;;;;;;;6236398;28;20360;-74
2023/05/01 00:29:11;;;;;;;3.25;2.40;;;;;;;;;;6237178;28;20296;-74
2023/05/01 00:32:16;;;;;;;4.22;2.33;;;;;;;;;;6219760;28;20281;-74
2023/05/01 00:35:23;;;;;;;2.55;2.45;;;;;;;;;;6235919;28;20304;-75
2023/05/01 00:38:28;;;;;;;2.40;2.30;;;;;;;;;;6219707;28;20296;-74
2023/05/01 00:41:34;;;;;;;2.95;2.15;;;;;;;;;;6235635;28;20288;-74
2023/05/01 00:44:39;;;;;;;2.53;2.33;;;;;;;;;;6236881;28;20304;-75
2023/05/01 00:47:44;;;;;;;2.00;2.00;;;;;;;;;;6237369;28;20316;-74
2023/05/01 00:50:51;;;;;;;3.15;1.70;;;;;;;;;;6236614;28;20316;-74
2023/05/01 00:53:56;;;;;;;2.35;2.25;;;;;;;;;;6235217;28;20284;-75
2023/05/01 00:57:01;;;;;;;2.08;1.88;;;;;;;;;;6237381;28;20299;-75
2023/05/01 01:00:11;;;;;;;2.97;2.25;;;;;;;;;;6235125;28;20312;-74
2023/05/01 01:03:16;;;;;;;2.30;2.05;;;;;;;;;;6227967;28;20483;-75
2023/05/01 01:06:32;;;;;;;2.00;1.90;;;;;;;;;;6213411;28;20297;-74
2023/05/01 01:09:47;;;;;;;2.33;2.15;;;;;;;;;;6226706;28;20290;-75
2023/05/01 01:12:59;;;;;;;2.10;1.88;;;;;;;;;;6215803;28;20289;-75
2023/05/01 01:16:13;;;;;;;1.92;1.80;;;;;;;;;;6210994;28;20301;-74
2023/05/01 01:20:02;;;;;;;3.45;2.33;;;;;;;;;;6226583;28;20581;-74
2023/05/01 01:23:46;;;;;;;2.20;2.00;;;;;;;;;;6226571;28;20377;-75
2023/05/01 01:27:27;;;;;;;3.38;2.00;;;;;;;;;;6203246;28;20313;-74
2023/05/01 01:31:06;;;;;;;8.68;2.65;;;;;;;;;;6199522;28;20297;-76
2023/05/01 01:34:16;;;;;;;4.13;2.00;;;;;;;;;;6207255;28;20359;-74
2023/05/01 01:37:25;;;;;;;4.93;1.80;;;;;;;;;;6211799;28;20301;-74
2023/05/01 01:40:35;;;;;;;3.95;2.00;;;;;;;;;;6226440;28;20293;-74
2023/05/01 01:43:43;;;;;;;2.47;2.00;;;;;;;;;;6225982;28;20305;-75
2023/05/01 01:46:50;;;;;;;1.92;1.90;;;;;;;;;;6226162;28;20304;-75
2023/05/01 01:49:57;;;;;;;1.95;1.83;;;;;;;;;;6210701;28;20300;-74
2023/05/01 01:53:05;;;;;;;2.07;1.97;;;;;;;;;;6211746;28;20305;-74
2023/05/01 01:56:11;;;;;;;2.80;1.80;;;;;;;;;;6201572;28;20330;-75
2023/05/01 01:59:17;;;;;;;2.20;2.00;;;;;;;;;;6226014;28;20305;-74
2023/05/01 02:02:23;;;;;;;3.20;1.92;;;;;;;;;;6242481;28;20296;-74
2023/05/01 02:05:30;;;;;;;2.38;1.60;;;;;;;;;;6225730;28;20292;-74
2023/05/01 02:08:36;;;;;;;2.73;1.80;;;;;;;;;;6211544;28;20464;-74
2023/05/01 02:11:42;;;;;;;2.00;1.90;;;;;;;;;;6242675;28;20309;-74
2023/05/01 02:14:47;;;;;;;2.95;2.05;;;;;;;;;;6211418;28;20472;-73
2023/05/01 02:17:53;;;;;;;2.45;2.15;;;;;;;;;;6210509;28;20300;-74
2023/05/01 02:21:00;;;;;;;1.93;1.83;;;;;;;;;;6211879;28;20301;-74
2023/05/01 02:24:06;;;;;;;3.73;2.13;;;;;;;;;;6212266;28;20301;-73
2023/05/01 02:27:15;;;;;;;2.03;1.57;;;;;;;;;;6211078;28;20444;-74
2023/05/01 02:30:21;;;;;;;1.60;1.60;;;;;;;;;;6227348;28;20361;-74
2023/05/01 02:33:26;;;;;;;1.83;1.60;;;;;;;;;;6227568;28;20288;-73
2023/05/01 02:36:33;;;;;;;2.20;2.00;;;;;;;;;;6212199;28;20298;-74
2023/05/01 02:39:39;;;;;;;1.98;1.60;;;;;;;;;;6210975;28;20297;-74
2023/05/01 02:42:46;;;;;;;2.45;2.00;;;;;;;;;;6227180;28;20317;-74
2023/05/01 02:45:52;;;;;;;2.60;1.77;;;;;;;;;;6226350;28;20293;-74
2023/05/01 02:48:58;;;;;;;2.08;1.92;;;;;;;;;;6209266;28;20293;-74
2023/05/01 02:52:06;;;;;;;2.30;2.10;;;;;;;;;;6225801;28;20288;-74
2023/05/01 02:55:12;;;;;;;2.47;1.70;;;;;;;;;;6209513;28;20301;-74
2023/05/01 02:58:17;;;;;;;6.43;2.10;;;;;;;;;;6209328;28;20300;-74
2023/05/01 03:01:22;;;;;;;7.60;1.93;;;;;;;;;;6228820;28;20301;-74
2023/05/01 03:04:28;;;;;;;4.13;2.10;;;;;;;;;;6238015;28;20296;-73
2023/05/01 03:07:35;;;;;;;4.13;1.90;;;;;;;;;;6253952;28;20295;-75
2023/05/01 03:10:42;;;;;;;3.75;1.85;;;;;;;;;;6239394;28;20468;-74
2023/05/01 03:13:47;;;;;;;5.03;2.30;;;;;;;;;;6239109;28;20316;-74
2023/05/01 03:16:53;;;;;;;3.77;2.00;;;;;;;;;;6239475;28;20299;-74
2023/05/01 03:19:58;;;;;;;4.50;2.00;;;;;;;;;;6238964;28;20600;-75
2023/05/01 03:23:05;;;;;;;1.90;1.80;;;;;;;;;;6237996;28;20603;-75
2023/05/01 03:26:12;;;;;;;2.23;2.10;;;;;;;;;;6238363;28;20265;-74
2023/05/01 03:29:18;;;;;;;3.13;2.33;;;;;;;;;;6237276;28;20296;-74
2023/05/01 03:32:23;;;;;;;2.27;2.07;;;;;;;;;;6254253;28;20264;-74
2023/05/01 03:35:29;;;;;;;2.93;2.10;;;;;;;;;;6252894;28;20284;-74
2023/05/01 03:38:37;;;;;;;6.20;1.93;;;;;;;;;;6236993;28;20468;-74
2023/05/01 03:41:48;;;;;;;3.43;1.93;;;;;;;;;;6239220;28;20297;-74
2023/05/01 03:45:02;;;;;;;2.13;2.03;;;;;;;;;;6220716;28;20304;-75
2023/05/01 03:48:08;;;;;;;7.50;2.17;;;;;;;;;;6237042;28;20288;-75
2023/05/01 03:51:16;;;;;;;3.60;2.23;;;;;;;;;;6237116;28;20308;-75
2023/05/01 03:54:23;;;;;;;4.90;1.97;;;;;;;;;;6220599;28;20296;-74
2023/05/01 03:57:37;;;;;;;3.07;2.20;;;;;;;;;;6236614;28;20297;-74
2023/05/01 04:00:43;;;;;;;3.17;2.60;;;;;;;;;;6253498;28;20485;-75
2023/05/01 04:03:49;;;;;;;3.57;2.20;;;;;;;;;;6236864;28;20304;-73
2023/05/01 04:06:54;;;;;;;5.90;1.90;;;;;;;;;;6237066;28;20428;-74
2023/05/01 04:10:01;;;;;;;2.47;1.90;;;;;;;;;;6253166;28;20471;-74
2023/05/01 04:13:06;;;;;;;5.47;2.10;;;;;;;;;;6235984;28;20549;-74
2023/05/01 04:16:13;;;;;;;9.43;2.20;;;;;;;;;;6236626;28;20387;-74
2023/05/01 04:19:18;;;;;;;2.07;2.00;;;;;;;;;;6236586;28;20608;-74
2023/05/01 04:22:28;;;;;;;4.27;2.17;;;;;;;;;;6237029;28;20308;-74
2023/05/01 04:25:34;;;;;;;2.10;2.10;;;;;;;;;;6215320;28;20304;-74
2023/05/01 04:28:45;;;;;;;3.80;2.20;;;;;;;;;;6211708;28;20312;-74
2023/05/01 04:31:53;;;;;;;2.38;1.90;;;;;;;;;;6212023;28;20316;-74
2023/05/01 04:34:58;;;;;;;2.67;2.27;;;;;;;;;;6195767;28;20577;-74
2023/05/01 04:38:04;;;;;;;3.43;1.77;;;;;;;;;;6231268;28;20288;-75
2023/05/01 04:41:11;;;;;;;3.60;1.83;;;;;;;;;;6220058;28;20296;-75
2023/05/01 04:44:17;;;;;;;3.45;2.10;;;;;;;;;;6223330;28;20297;-74
2023/05/01 04:47:22;;;;;;;1.90;1.77;;;;;;;;;;6236265;28;20269;-74
2023/05/01 04:50:27;;;;;;;2.03;1.92;;;;;;;;;;6231177;28;20300;-74
2023/05/01 04:53:33;;;;;;;5.05;2.03;;;;;;;;;;6235414;28;20284;-74
2023/05/01 04:56:41;;;;;;;2.22;2.03;;;;;;;;;;6219653;28;20296;-74
2023/05/01 04:59:46;;;;;;;2.65;2.30;;;;;;;;;;6234897;28;20299;-74
2023/05/01 05:02:51;;;;;;;2.00;1.90;;;;;;;;;;6210241;28;20297;-75
2023/05/01 05:05:57;;;;;;;2.10;1.85;;;;;;;;;;6211275;28;20300;-74
2023/05/01 05:09:02;;;;;;;2.60;1.98;;;;;;;;;;6212091;28;20301;-74
2023/05/01 05:12:10;;;;;;;2.85;1.98;;;;;;;;;;6219107;28;20302;-74
2023/05/01 05:15:16;;;;;;;3.38;1.80;;;;;;;;;;6203056;28;20302;-74
2023/05/01 05:18:21;;;;;;;2.03;1.90;;;;;;;;;;6218892;28;20317;-74
2023/05/01 05:21:27;;;;;;;4.10;2.10;;;;;;;;;;6218874;28;20298;-74
2023/05/01 05:24:34;;;;;;;2.03;1.80;;;;;;;;;;6218015;28;20297;-73
2023/05/01 05:27:41;;;;;;;3.25;2.42;;;;;;;;;;6186685;28;20326;-75
2023/05/01 05:30:46;;;;;;;10.90;2.72;;;;;;;;;;6188127;28;20589;-75
2023/05/01 05:33:54;;;;;;;4.22;2.15;;;;;;;;;;6186409;28;20341;-74
2023/05/01 05:37:00;;;;;;;4.35;2.00;;;;;;;;;;6219284;28;20467;-75
2023/05/01 05:40:07;;;;;;;4.10;2.42;;;;;;;;;;6218811;28;20301;-75
2023/05/01 05:43:23;;;;;;;2.58;2.13;;;;;;;;;;6202674;28;20298;-74
2023/05/01 05:46:32;;;;;;;2.22;1.95;;;;;;;;;;6219587;28;20298;-74
2023/05/01 05:49:37;;;;;;;5.18;2.55;;;;;;;;;;6186285;28;20289;-74
2023/05/01 05:52:42;;;;;;;5.65;2.20;;;;;;;;;;6193249;28;20437;-73
2023/05/01 05:55:48;;;;;;;3.50;2.20;;;;;;;;;;6228046;28;20297;-75
2023/05/01 05:58:55;;;;;;;5.97;2.30;;;;;;;;;;6210451;28;20297;-75
2023/05/01 06:02:00;;;;;;;4.25;2.13;;;;;;;;;;6236406;28;20304;-73
2023/05/01 06:05:06;;;;;;;10.80;3.15;;;;;;;;;;6219253;28;20629;-74
2023/05/01 06:08:13;;;;;;;5.13;2.47;;;;;;;;;;6236494;28;20322;-75
2023/05/01 06:11:20;;;;;;;6.50;2.10;;;;;;;;;;6227994;28;20289;-74
2023/05/01 06:14:26;;;;;;;2.95;2.38;;;;;;;;;;6194173;28;20444;-75
2023/05/01 06:17:33;;;;;;;6.15;2.70;;;;;;;;;;6210034;28;20285;-75
2023/05/01 06:20:38;;;;;;;2.72;2.25;;;;;;;;;;6210008;28;20297;-74
2023/05/01 06:23:44;;;;;;;3.80;2.47;;;;;;;;;;6209519;28;20305;-75
2023/05/01 06:27:08;;;;;;;4.35;2.58;;;;;;;;;;6226586;28;20372;-74
2023/05/01 06:30:18;;;;;;;2.30;2.20;;;;;;;;;;6209797;28;20459;-75
2023/05/01 06:33:23;;;;;;;4.82;2.10;;;;;;;;;;6225858;28;20288;-75
2023/05/01 06:36:45;;;;;;;4.50;2.50;;;;;;;;;;6230299;28;20318;-75
2023/05/01 06:39:50;;;;;;;3.17;2.55;;;;;;;;;;6214439;28;20605;-75
2023/05/01 06:42:55;;;;;;;4.18;2.15;;;;;;;;;;6214257;28;20300;-75
2023/05/01 06:46:05;;;;;;;7.50;2.67;;;;;;;;;;6231091;28;20293;-75
2023/05/01 06:49:11;;;;;;;5.50;2.30;;;;;;;;;;6213975;28;20463;-74
2023/05/01 06:52:16;;;;;;;2.53;2.22;;;;;;;;;;6233407;28;20301;-74
2023/05/01 06:55:22;;;;;;;10.88;2.97;;;;;;;;;;6254987;28;20296;-74
2023/05/01 06:58:27;;;;;;;5.70;2.47;;;;;;;;;;6231999;28;20475;-75
2023/05/01 07:01:33;;;;;;;5.88;2.42;;;;;;;;;;6215792;28;20516;-73
2023/05/01 07:04:39;;;;;;;8.55;2.60;;;;;;;;;;6215010;28;20296;-75
2023/05/01 07:07:44;;;;;;;6.70;2.83;;;;;;;;;;6215059;28;20601;-74
2023/05/01 07:11:05;;;;;;;4.07;2.80;;;;;;;;;;6214585;28;20285;-74
2023/05/01 07:14:10;;;;;;;6.28;2.35;;;;;;;;;;6238946;28;20300;-75
2023/05/01 07:17:16;;;;;;;9.68;2.75;;;;;;;;;;6239318;28;20560;-75
2023/05/01 07:20:22;;;;;;;6.47;3.70;;;;;;;;;;6238906;28;20292;-75
2023/05/01 07:23:27;;;;;;;3.78;3.00;;;;;;;;;;6238711;28;20292;-74
2023/05/01 07:26:32;;;;;;;5.22;2.75;;;;;;;;;;6239008;28;20304;-74
2023/05/01 07:29:39;;;;;;;6.15;3.10;;;;;;;;;;6238760;28;20304;-74
2023/05/01 07:32:46;;;;;;;6.00;2.72;;;;;;;;;;6237035;28;20304;-75
2023/05/01 07:35:51;;;;;;;12.18;3.20;;;;;;;;;;6239483;28;20317;-73
2023/05/01 07:38:56;;;;;;;3.13;2.90;;;;;;;;;;6238523;28;20324;-75
2023/05/01 07:42:01;;;;;;;5.28;2.70;;;;;;;;;;6238997;28;20302;-75
2023/05/01 07:45:08;;;;;;;3.65;2.67;;;;;;;;;;6238142;28;20292;-74
2023/05/01 07:48:15;;;;;;;4.03;2.58;;;;;;;;;;6230667;28;20432;-75
2023/05/01 07:51:20;;;;;;;7.85;2.47;;;;;;;;;;6214390;28;20301;-75
2023/05/01 07:54:25;;;;;;;5.72;2.67;;;;;;;;;;6224879;28;20293;-73
2023/05/01 07:57:32;;;;;;;5.10;2.50;;;;;;;;;;6214206;28;20289;-75
2023/05/01 08:00:37;;;;;;;4.07;2.40;;;;;;;;;;6201894;28;20293;-74
2023/05/01 08:03:44;;;;;;;3.28;2.35;;;;;;;;;;6213334;28;20305;-74
2023/05/01 08:06:51;;;;;;;5.80;2.92;;;;;;;;;;6213811;28;20431;-76
2023/05/01 08:09:57;;;;;;;4.38;2.83;;;;;;;;;;6217337;28;20301;-74
2023/05/01 08:13:04;;;;;;;5.30;2.63;;;;;;;;;;6233710;28;20305;-74
2023/05/01 08:16:11;;;;;;;6.85;3.15;;;;;;;;;;6213741;28;20581;-74
2023/05/01 08:19:18;;;;;;;4.18;2.85;;;;;;;;;;6212878;28;20301;-74
2023/05/01 08:22:23;;;;;;;6.63;2.45;;;;;;;;;;6213959;28;20296;-75
2023/05/01 08:25:30;;;;;;;3.10;2.40;;;;;;;;;;6212824;28;20328;-74
2023/05/01 08:28:36;;;;;;;6.82;2.83;;;;;;;;;;6212783;28;20292;-73
2023/05/01 08:31:42;;;;;;;8.85;2.63;;;;;;;;;;6213874;28;20569;-75
2023/05/01 08:34:49;;;;;;;2.67;2.17;;;;;;;;;;6220746;28;20300;-75
2023/05/01 08:37:54;;;;;;;4.97;2.90;;;;;;;;;;6214299;28;20289;-74
2023/05/01 08:41:00;;;;;;;8.23;2.70;;;;;;;;;;6212867;28;20293;-75
2023/05/01 08:44:07;;;;;;;7.10;2.88;;;;;;;;;;6224529;28;20477;-75
2023/05/01 08:47:15;;;;;;;6.00;2.63;;;;;;;;;;6237521;28;20269;-74
2023/05/01 08:50:23;;;;;;;7.43;2.75;;;;;;;;;;6236784;28;20296;-74
2023/05/01 08:53:29;;;;;;;18.10;4.45;;;;;;;;;;6236477;28;20584;-74
2023/05/01 08:56:36;;;;;;;4.25;2.72;;;;;;;;;;6235782;28;20459;-75
2023/05/01 08:59:42;;;;;;;5.45;2.95;;;;;;;;;;6218263;28;20471;-74
2023/05/01 09:02:48;;;;;;;5.40;2.28;;;;;;;;;;6211896;28;20292;-75
2023/05/01 09:05:55;;;;;;;4.63;2.60;;;;;;;;;;6212605;28;20296;-74
2023/05/01 09:09:01;;;;;;;7.55;2.50;;;;;;;;;;6211920;28;20490;-75
2023/05/01 09:12:13;;;;;;;7.47;3.05;;;;;;;;;;6211903;28;20293;-75
2023/05/01 09:15:19;;;;;;;4.57;2.80;;;;;;;;;;6239479;28;20301;-74
2023/05/01 09:18:24;;;;;;;7.10;3.17;;;;;;;;;;6222949;28;20450;-74
2023/05/01 09:21:31;;;;;;;6.50;2.88;;;;;;;;;;6236622;28;20561;-74
2023/05/01 09:24:36;;;;;;;11.57;2.70;;;;;;;;;;6236006;28;20320;-74
2023/05/01 09:27:42;;;;;;;5.22;2.53;;;;;;;;;;6235826;28;20365;-75
2023/05/01 09:30:47;;;;;;;8.95;2.42;;;;;;;;;;6251888;28;20287;-74
2023/05/01 09:33:54;;;;;;;4.00;2.65;;;;;;;;;;6235303;28;20308;-74
2023/05/01 09:37:00;;;;;;;5.05;2.70;;;;;;;;;;6235859;28;20292;-73
2023/05/01 09:40:07;;;;;;;3.55;2.30;;;;;;;;;;6235725;28;20300;-74
2023/05/01 09:43:12;;;;;;;3.25;2.90;;;;;;;;;;6235544;28;20317;-75
2023/05/01 09:46:19;;;;;;;3.70;2.42;;;;;;;;;;6236988;28;20295;-74
2023/05/01 09:49:45;;;;;;;7.00;2.60;;;;;;;;;;6235547;28;20297;-74
2023/05/01 09:52:52;;;;;;;5.20;2.50;;;;;;;;;;6235279;28;20312;-74
2023/05/01 09:56:01;;;;;;;4.88;2.40;;;;;;;;;;6218954;28;20304;-74
2023/05/01 09:59:16;;;;;;;2.88;2.60;;;;;;;;;;6234491;28;20300;-74
2023/05/01 10:02:29;;;;;;;3.92;2.10;;;;;;;;;;6236086;28;20584;-74
2023/05/01 10:05:43;;;;;;;5.40;2.08;;;;;;;;;;6235009;28;20300;-74
2023/05/01 10:08:51;;;;;;;4.85;2.28;;;;;;;;;;6225272;28;20317;-74
2023/05/01 10:11:57;;;;;;;4.30;2.22;;;;;;;;;;6211569;28;20589;-74
2023/05/01 10:15:03;;;;;;;3.75;2.50;;;;;;;;;;6212277;28;20309;-74
2023/05/01 10:18:28;;;;;;;4.35;2.50;;;;;;;;;;6193892;28;20285;-74
2023/05/01 10:21:34;;;;;;;2.90;2.30;;;;;;;;;;6211397;28;20423;-74
2023/05/01 10:24:41;;;;;;;4.28;2.40;;;;;;;;;;6210720;28;20316;-74
2023/05/01 10:27:46;;;;;;;3.83;2.22;;;;;;;;;;6194009;28;20297;-75
2023/05/01 10:30:52;;;;;;;2.25;2.10;;;;;;;;;;6211318;28;20297;-74
2023/05/01 10:33:57;;;;;;;4.00;2.22;;;;;;;;;;6209608;28;20301;-74
2023/05/01 10:37:06;;;;;;;2.38;2.17;;;;;;;;;;6211330;28;20304;-75
2023/05/01 10:40:45;;;;;;;2.67;2.22;;;;;;;;;;6210611;28;20301;-75
2023/05/01 10:44:20;;;;;;;2.17;2.00;;;;;;;;;;6248801;28;20255;-74
2023/05/01 10:47:44;;;;;;;7.07;2.85;;;;;;;;;;6213801;28;20293;-75
2023/05/01 10:51:09;;;;;;;5.55;2.50;;;;;;;;;;6234020;28;20538;-75
2023/05/01 10:54:25;;;;;;;2.70;2.45;;;;;;;;;;6235259;28;20449;-74
2023/05/01 10:57:45;;;;;;;2.97;2.20;;;;;;;;;;6234794;28;20296;-74
2023/05/01 11:01:28;;;;;;;2.30;2.20;;;;;;;;;;6234253;28;20292;-75
2023/05/01 11:04:49;;;;;;;2.83;2.35;;;;;;;;;;6186472;28;20298;-74
2023/05/01 11:08:28;;;;;;;3.75;2.47;;;;;;;;;;6186597;28;20294;-74
2023/05/01 11:11:49;;;;;;;4.93;2.60;;;;;;;;;;6193036;28;20270;-75
2023/05/01 11:15:08;;;;;;;2.50;2.30;;;;;;;;;;6162666;28;20594;-75
2023/05/01 11:18:14;;;;;;;2.20;2.10;;;;;;;;;;6192756;28;20298;-74
2023/05/01 11:21:19;;;;;;;3.60;2.15;;;;;;;;;;6162528;28;20587;-74
2023/05/01 11:24:32;;;;;;;3.63;2.47;;;;;;;;;;6166167;28;20306;-74
2023/05/01 11:27:38;;;;;;;3.45;1.98;;;;;;;;;;6166343;28;20311;-74
2023/05/01 11:30:45;;;;;;;2.35;2.08;;;;;;;;;;6166938;28;20460;-75
2023/05/01 11:33:50;;;;;;;2.20;1.80;;;;;;;;;;6166829;28;20310;-74
2023/05/01 11:36:56;;;;;;;3.00;2.20;;;;;;;;;;6166490;28;20294;-74
2023/05/01 11:40:03;;;;;;;2.58;2.20;;;;;;;;;;6166214;28;20299;-75
2023/05/01 11:43:11;;;;;;;2.63;2.00;;;;;;;;;;6165977;28;20298;-75
2023/05/01 11:46:26;;;;;;;1.92;1.83;;;;;;;;;;6166596;28;20290;-75
2023/05/01 11:49:31;;;;;;;4.05;1.70;;;;;;;;;;6167226;28;20298;-74
2023/05/01 11:52:44;;;;;;;4.18;1.70;;;;;;;;;;6201582;28;20293;-76
2023/05/01 11:55:50;;;;;;;1.90;1.75;;;;;;;;;;6190410;28;20321;-73
2023/05/01 11:58:56;;;;;;;2.40;1.80;;;;;;;;;;6189688;28;20293;-75
2023/05/01 12:02:02;;;;;;;2.03;1.90;;;;;;;;;;6203261;28;20320;-75
2023/05/01 12:05:17;;;;;;;1.95;1.85;;;;;;;;;;6236786;28;20331;-74
2023/05/01 12:08:23;;;;;;;1.77;1.67;;;;;;;;;;6237962;28;20292;-75
2023/05/01 12:11:28;;;;;;;1.95;1.95;;;;;;;;;;6238127;28;20288;-75
2023/05/01 12:14:33;;;;;;;2.13;2.05;;;;;;;;;;6238909;28;20303;-75
2023/05/01 12:17:40;;;;;;;3.05;1.90;;;;;;;;;;6240015;28;20298;-74
2023/05/01 12:20:47;;;;;;;2.30;2.20;;;;;;;;;;6238904;28;20485;-76
2023/05/01 12:23:54;;;;;;;2.55;2.35;;;;;;;;;;6238507;28;20296;-74
2023/05/01 12:27:02;;;;;;;2.50;2.30;;;;;;;;;;6238434;28;20308;-74
2023/05/01 12:30:08;;;;;;;2.90;2.22;;;;;;;;;;6237690;28;20304;-74
2023/05/01 12:33:16;;;;;;;2.67;2.47;;;;;;;;;;6236938;28;20581;-74
2023/05/01 12:36:24;;;;;;;3.80;2.50;;;;;;;;;;6238121;28;20300;-75
2023/05/01 12:39:38;;;;;;;2.45;2.35;;;;;;;;;;6237680;28;20288;-76
2023/05/01 12:42:43;;;;;;;2.25;2.15;;;;;;;;;;6237083;28;20297;-74
2023/05/01 12:45:52;;;;;;;2.40;2.10;;;;;;;;;;6237525;28;20296;-75
2023/05/01 12:48:59;;;;;;;2.22;2.00;;;;;;;;;;6219216;28;20308;-75
2023/05/01 12:52:06;;;;;;;3.28;2.20;;;;;;;;;;6237146;28;20296;-75
2023/05/01 12:55:13;;;;;;;3.03;2.40;;;;;;;;;;6236660;28;20297;-74
2023/05/01 12:58:18;;;;;;;2.28;2.20;;;;;;;;;;6219034;28;20292;-74
2023/05/01 13:01:27;;;;;;;2.17;2.00;;;;;;;;;;6237280;28;20292;-75
2023/05/01 13:04:34;;;;;;;2.22;2.05;;;;;;;;;;6236941;28;20292;-75
2023/05/01 13:07:40;;;;;;;2.83;1.95;;;;;;;;;;6236245;28;20288;-75
2023/05/01 13:10:45;;;;;;;1.70;1.70;;;;;;;;;;6219260;28;20468;-74
2023/05/01 13:13:51;;;;;;;2.25;1.98;;;;;;;;;;6236577;28;20301;-74
2023/05/01 13:16:56;;;;;;;2.05;1.80;;;;;;;;;;6237219;28;20296;-74
2023/05/01 13:20:04;;;;;;;4.05;2.03;;;;;;;;;;6236448;28;20295;-75
2023/05/01 13:23:13;;;;;;;2.60;2.50;;;;;;;;;;6235577;28;20295;-76
2023/05/01 13:26:18;;;;;;;2.33;2.22;;;;;;;;;;6236705;28;20471;-75
2023/05/01 13:29:25;;;;;;;3.00;2.17;;;;;;;;;;6233351;28;20308;-75
2023/05/01 13:32:31;;;;;;;2.10;2.00;;;;;;;;;;6212235;28;20293;-74
2023/05/01 13:35:38;;;;;;;2.67;2.47;;;;;;;;;;6235262;28;20372;-75
2023/05/01 13:38:45;;;;;;;2.17;2.10;;;;;;;;;;6236332;28;20592;-74
2023/05/01 13:41:50;;;;;;;2.55;2.30;;;;;;;;;;6236589;28;20580;-73
2023/05/01 13:44:57;;;;;;;2.58;2.20;;;;;;;;;;6234961;28;20311;-74
2023/05/01 13:48:03;;;;;;;2.63;2.53;;;;;;;;;;6236219;28;20292;-75
2023/05/01 13:51:11;;;;;;;4.18;2.38;;;;;;;;;;6236348;28;20592;-73
2023/05/01 13:54:17;;;;;;;2.50;2.40;;;;;;;;;;6235873;28;20297;-74
2023/05/01 13:57:23;;;;;;;2.50;2.50;;;;;;;;;;6235114;28;20300;-75
2023/05/01 14:00:28;;;;;;;2.55;2.35;;;;;;;;;;6235220;28;20292;-75
2023/05/01 14:03:40;;;;;;;2.63;2.42;;;;;;;;;;6218320;28;20296;-73
2023/05/01 14:06:47;;;;;;;2.80;2.60;;;;;;;;;;6235741;28;20292;-75
2023/05/01 14:09:54;;;;;;;2.40;2.40;;;;;;;;;;6235658;28;20300;-74
2023/05/01 14:13:01;;;;;;;2.40;2.30;;;;;;;;;;6235597;28;20288;-74
2023/05/01 14:16:09;;;;;;;2.67;2.58;;;;;;;;;;6236172;28;20296;-74
2023/05/01 14:19:16;;;;;;;2.70;2.60;;;;;;;;;;6235639;28;20316;-75
2023/05/01 14:22:22;;;;;;;4.60;3.20;;;;;;;;;;6235812;28;20313;-74
2023/05/01 14:25:30;;;;;;;2.70;2.60;;;;;;;;;;6235773;28;20304;-75
2023/05/01 14:28:38;;;;;;;2.50;2.38;;;;;;;;;;6235567;28;20631;-74
2023/05/01 14:31:43;;;;;;;2.72;2.53;;;;;;;;;;6214242;28;20301;-76
2023/05/01 14:34:48;;;;;;;2.40;2.30;;;;;;;;;;6210982;28;20289;-75
2023/05/01 14:37:55;;;;;;;2.53;2.42;;;;;;;;;;6211322;28;20322;-75
2023/05/01 14:41:00;;;;;;;2.60;2.42;;;;;;;;;;6211768;28;20596;-73
2023/05/01 14:44:06;;;;;;;3.13;2.88;;;;;;;;;;6234367;28;20570;-75
2023/05/01 14:47:15;;;;;;;2.50;2.40;;;;;;;;;;6235787;28;20463;-75
2023/05/01 14:50:21;;;;;;;3.10;2.90;;;;;;;;;;6235290;28;20312;-74
2023/05/01 14:53:32;;;;;;;2.90;2.72;;;;;;;;;;6235098;28;20284;-75
2023/05/01 14:56:37;;;;;;;2.72;2.42;;;;;;;;;;6237551;28;20296;-74
2023/05/01 14:59:43;;;;;;;2.47;2.47;;;;;;;;;;6239569;28;20300;-75
2023/05/01 15:02:48;;;;;;;2.72;2.63;;;;;;;;;;6238969;28;20482;-75
2023/05/01 15:05:54;;;;;;;2.97;2.85;;;;;;;;;;6240145;28;20292;-74
2023/05/01 15:09:00;;;;;;;2.90;2.75;;;;;;;;;;6239559;28;20304;-74
2023/05/01 15:12:06;;;;;;;3.85;2.70;;;;;;;;;;6239726;28;20300;-74
2023/05/01 15:15:12;;;;;;;3.10;3.00;;;;;;;;;;6239012;28;20321;-75
2023/05/01 15:18:18;;;;;;;3.15;3.00;;;;;;;;;;6239006;28;20296;-74
2023/05/01 15:21:23;;;;;;;3.38;3.28;;;;;;;;;;6239886;28;20291;-75
2023/05/01 15:24:30;;;;;;;5.60;3.40;;;;;;;;;;6239359;28;20296;-75
2023/05/01 15:27:35;;;;;;;3.78;3.45;;;;;;;;;;6238783;28;20304;-75
2023/05/01 15:30:43;;;;;;;3.88;3.58;;;;;;;;;;6239400;28;20297;-75
2023/05/01 15:33:48;;;;;;;8.75;4.70;;;;;;;;;;6238934;28;20312;-75
2023/05/01 15:36:53;;;;;;;5.05;4.40;;;;;;;;;;6239289;28;20292;-75
2023/05/01 15:40:03;;;;;;;5.30;4.95;;;;;;;;;;6238639;28;20304;-75
2023/05/01 15:43:10;;;;;;;5.57;4.82;;;;;;;;;;6237097;28;20288;-74
2023/05/01 15:46:17;;;;;;;9.95;5.22;;;;;;;;;;6238676;28;20296;-74
2023/05/01 15:49:22;;;;;;;8.02;5.40;;;;;;;;;;6238424;28;20296;-76
2023/05/01 15:52:27;;;;;;;6.38;5.45;;;;;;;;;;6239038;28;20584;-75
2023/05/01 15:55:34;;;;;;;6.93;5.60;;;;;;;;;;6238394;28;20296;-75
2023/05/01 15:58:39;;;;;;;6.63;5.47;;;;;;;;;;6217460;28;20317;-75
2023/05/01 16:01:44;;;;;;;6.90;5.97;;;;;;;;;;6214301;28;20385;-75
2023/05/01 16:04:51;;;;;;;7.90;6.03;;;;;;;;;;6213544;28;20293;-76
2023/05/01 16:08:01;;;;;;;8.63;6.47;;;;;;;;;;6212839;28;20301;-75
2023/05/01 16:11:09;;;;;;;9.95;6.80;;;;;;;;;;6237730;28;20276;-75
2023/05/01 16:14:16;;;;;;;10.30;6.47;;;;;;;;;;6237501;28;20298;-75
2023/05/01 16:17:21;;;;;;;9.82;7.18;;;;;;;;;;6238509;28;20284;-75
2023/05/01 16:20:27;;;;;;;11.52;7.18;;;;;;;;;;6237800;28;20285;-74
2023/05/01 16:23:32;;;;;;;8.90;6.13;;;;;;;;;;6237732;28;20297;-74
2023/05/01 16:26:41;;;;;;;11.55;7.05;;;;;;;;;;6233077;28;20463;-74
2023/05/01 16:29:46;;;;;;;8.45;6.50;;;;;;;;;;6248001;28;20304;-75
2023/05/01 16:32:51;;;;;;;7.97;6.40;;;;;;;;;;6237236;28;20297;-74
2023/05/01 16:35:58;;;;;;;19.30;9.30;;;;;;;;;;6237821;28;20284;-73
2023/05/01 16:39:03;;;;;;;11.57;7.55;;;;;;;;;;6220050;28;20301;-73
2023/05/01 16:42:13;;;;;;;8.65;6.43;;;;;;;;;;6237757;28;20296;-75
2023/05/01 16:45:18;;;;;;;13.02;6.80;;;;;;;;;;6237474;28;20458;-76
2023/05/01 16:48:24;;;;;;;10.00;6.50;;;;;;;;;;6237278;28;20300;-75
2023/05/01 16:51:31;;;;;;;9.95;6.63;;;;;;;;;;6237022;28;20292;-74
2023/05/01 16:54:36;;;;;;;10.07;6.40;;;;;;;;;;6233066;28;20297;-74
2023/05/01 16:57:43;;;;;;;12.52;7.25;;;;;;;;;;6237567;28;20305;-75
2023/05/01 17:00:49;;;;;;;10.60;6.90;;;;;;;;;;6220359;28;20292;-75
2023/05/01 17:03:54;;;;;;;13.18;7.15;;;;;;;;;;6236407;28;20320;-76
2023/05/01 17:06:59;;;;;;;8.68;6.63;;;;;;;;;;6236957;28;20296;-75
2023/05/01 17:10:06;;;;;;;10.73;7.38;;;;;;;;;;6236592;28;20483;-73
2023/05/01 17:13:15;;;;;;;10.68;6.97;;;;;;;;;;6236685;28;20368;-74
2023/05/01 17:16:21;;;;;;;14.10;6.28;;;;;;;;;;6237680;28;20300;-75
2023/05/01 17:19:27;;;;;;;16.50;7.57;;;;;;;;;;6233879;28;20319;-77
2023/05/01 17:22:37;;;;;;;13.52;6.68;;;;;;;;;;6237024;28;20273;-74
2023/05/01 17:25:42;;;;;;;7.68;6.20;;;;;;;;;;6235216;28;20293;-76
2023/05/01 17:28:51;;;;;;;7.70;6.47;;;;;;;;;;6233028;28;20296;-76
2023/05/01 17:31:58;;;;;;;9.45;6.43;;;;;;;;;;6219586;28;20293;-75
2023/05/01 17:35:04;;;;;;;9.82;6.22;;;;;;;;;;6218994;28;20292;-74
2023/05/01 17:38:10;;;;;;;8.63;7.20;;;;;;;;;;6237630;28;20297;-74
2023/05/01 17:41:16;;;;;;;10.32;5.72;;;;;;;;;;6235927;28;20292;-74
2023/05/01 17:44:22;;;;;;;9.18;5.80;;;;;;;;;;6236079;28;20288;-75
2023/05/01 17:47:27;;;;;;;9.82;5.82;;;;;;;;;;6236984;28;20311;-74
2023/05/01 17:50:34;;;;;;;7.65;5.65;;;;;;;;;;6236167;28;20292;-73
2023/05/01 17:53:39;;;;;;;9.73;5.80;;;;;;;;;;6236661;28;20471;-73
2023/05/01 17:56:45;;;;;;;8.82;5.68;;;;;;;;;;6235896;28;20387;-75
2023/05/01 17:59:52;;;;;;;10.77;6.22;;;;;;;;;;6235534;28;20300;-75
2023/05/01 18:02:57;;;;;;;6.78;5.57;;;;;;;;;;6236547;28;20383;-76
2023/05/01 18:06:03;;;;;;;10.38;5.97;;;;;;;;;;6236021;28;20326;-76
2023/05/01 18:09:09;;;;;;;10.35;5.28;;;;;;;;;;6235197;28;20300;-74
2023/05/01 18:12:14;;;;;;;9.38;5.50;;;;;;;;;;6221043;28;20300;-75
2023/05/01 18:15:24;;;;;;;8.35;5.22;;;;;;;;;;6178446;28;20297;-77
2023/05/01 18:18:29;;;;;;;10.35;5.50;;;;;;;;;;6212255;28;20293;-76
2023/05/01 18:21:34;;;;;;;6.07;5.07;;;;;;;;;;6211406;28;20316;-74
2023/05/01 18:24:40;;;;;;;7.03;5.65;;;;;;;;;;6210388;28;20317;-75
2023/05/01 18:27:46;;;;;;;9.95;5.78;;;;;;;;;;6212289;28;20496;-77
2023/05/01 18:30:52;;;;;;;6.78;5.30;;;;;;;;;;6212629;28;20296;-76
2023/05/01 18:33:58;;;;;;;7.88;5.38;;;;;;;;;;6218452;28;20293;-76
2023/05/01 18:37:03;;;;;;;10.70;5.60;;;;;;;;;;6202726;28;20297;-75
2023/05/01 18:40:09;;;;;;;7.47;5.43;;;;;;;;;;6219351;28;20296;-74
2023/05/01 18:43:14;;;;;;;9.38;5.85;;;;;;;;;;6221741;28;20288;-76
2023/05/01 18:46:23;;;;;;;7.30;5.65;;;;;;;;;;6226770;28;20301;-78